createdAt,value
2019-04-21T00:00:29.719Z,45.51
2019-04-21T00:05:54.596Z,45.63
2019-04-21T00:11:00.828Z,45.80
2019-04-21T00:15:46.357Z,46.17
2019-04-21T00:20:49.533Z,46.27
2019-04-21T00:25:57.703Z,46.45
2019-04-21T00:31:07.304Z,47.15
2019-04-21T00:35:59.772Z,47.01
2019-04-21T00:41:19.604Z,47.43
2019-04-21T00:46:08.498Z,47.11
2019-04-21T00:51:33.227Z,47.29
2019-04-21T00:56:30.427Z,47.57
2019-04-21T01:01:31.437Z,47.35
2019-04-21T01:06:38.137Z,47.42
2019-04-21T01:11:44.876Z,47.73
2019-04-21T01:16:45.836Z,47.63
2019-04-21T01:21:25.053Z,47.80
2019-04-21T01:26:39.059Z,47.85
2019-04-21T01:31:51.103Z,48.19
2019-04-21T01:36:49.796Z,48.29
2019-04-21T01:41:57.591Z,48.46
2019-04-21T01:46:56.361Z,48.80
2019-04-21T01:52:17.624Z,48.65
2019-04-21T01:57:07.582Z,49.06
2019-04-21T02:02:11.142Z,48.71
2019-04-21T02:07:17.646Z,49.67
2019-04-21T02:12:20.697Z,51.03
2019-04-21T02:17:26.481Z,52.07
2019-04-21T02:22:43.130Z,51.38
2019-04-21T02:27:30.964Z,53.97
2019-04-21T02:32:43.876Z,54.13
2019-04-21T02:37:54.905Z,54.83
2019-04-21T02:43:00.226Z,55.77
2019-04-21T02:58:25.258Z,54.03
2019-04-21T03:03:09.233Z,53.43
2019-04-21T03:08:22.823Z,54.43
2019-04-21T03:13:14.357Z,54.63
2019-04-21T03:18:22.587Z,54.12
2019-04-21T03:28:25.181Z,53.34
2019-04-21T03:33:59.563Z,53.47
2019-04-21T03:38:37.510Z,52.85
2019-04-21T03:43:40.139Z,52.91
2019-04-21T03:49:02.293Z,53.23
2019-04-21T03:53:44.528Z,53.49
2019-04-21T03:58:54.406Z,54.92
2019-04-21T04:09:06.406Z,53.48
2019-04-21T04:14:03.468Z,53.23
2019-04-21T04:18:57.693Z,53.00
2019-04-21T04:29:12.185Z,52.88
2019-04-21T04:34:14.624Z,52.89
2019-04-21T04:39:36.313Z,52.67
2019-04-21T04:44:23.206Z,52.42
2019-04-21T04:49:38.979Z,52.16
2019-04-21T04:54:39.112Z,54.39
2019-04-21T05:09:39.620Z,56.91
2019-04-21T05:14:39.009Z,57.25
2019-04-21T05:19:55.756Z,58.00
2019-04-21T05:24:33.301Z,57.40
2019-04-21T05:29:49.807Z,57.59
2019-04-21T05:34:42.770Z,58.12
2019-04-21T05:39:47.978Z,57.60
2019-04-21T05:45:01.807Z,57.74
2019-04-21T05:49:55.486Z,56.91
2019-04-21T05:55:12.342Z,56.20
2019-04-21T06:00:08.835Z,56.09
2019-04-21T06:05:20.626Z,55.10
2019-04-21T06:10:12.409Z,54.63
2019-04-21T06:15:27.070Z,54.66
2019-04-21T06:20:30.749Z,56.45
2019-04-21T06:25:54.956Z,55.65
2019-04-21T06:30:35.987Z,56.94
2019-04-21T06:35:52.959Z,57.23
2019-04-21T06:40:46.254Z,56.59
2019-04-21T06:45:51.189Z,56.96
2019-04-21T06:50:52.962Z,55.72
2019-04-21T06:55:52.021Z,56.37
2019-04-21T07:00:58.794Z,54.32
2019-04-21T07:06:03.455Z,53.74
2019-04-21T07:11:04.011Z,52.37
2019-04-21T07:16:12.012Z,52.00
2019-04-21T07:21:09.625Z,51.48
2019-04-21T07:26:10.486Z,50.76
2019-04-21T07:31:17.851Z,50.54
2019-04-21T07:36:28.275Z,50.57
2019-04-21T07:41:15.969Z,50.12
2019-04-21T07:46:19.845Z,50.21
2019-04-21T07:51:31.579Z,50.20
2019-04-21T07:56:19.914Z,49.49
2019-04-21T08:01:35.301Z,49.72
2019-04-21T08:06:40.574Z,49.27
2019-04-21T08:11:38.321Z,48.50
2019-04-21T08:16:51.063Z,48.02
2019-04-21T08:22:03.829Z,47.33
2019-04-21T08:26:58.566Z,47.48
2019-04-21T08:32:03.079Z,46.16
2019-04-21T08:37:02.703Z,45.94
2019-04-21T08:42:08.558Z,44.69
2019-04-21T08:47:14.094Z,45.43
2019-04-21T08:52:20.935Z,45.11
2019-04-21T08:57:25.729Z,44.65
2019-04-21T09:02:23.726Z,43.71
2019-04-21T09:07:28.430Z,43.17
2019-04-21T09:12:29.489Z,41.94
2019-04-21T09:17:25.023Z,41.21
2019-04-21T09:22:37.734Z,41.06
2019-04-21T09:27:38.972Z,39.76
2019-04-21T09:32:26.780Z,39.65
2019-04-21T09:37:39.330Z,38.69
2019-04-21T09:42:35.965Z,38.15
2019-04-21T09:47:40.137Z,38.74
2019-04-21T09:52:45.149Z,38.35
2019-04-21T09:57:47.476Z,36.57
2019-04-21T10:02:53.512Z,34.64
2019-04-21T10:07:48.828Z,34.52
2019-04-21T10:12:51.887Z,34.52
2019-04-21T10:17:54.066Z,35.04
2019-04-21T10:22:55.634Z,33.35
2019-04-21T10:27:57.301Z,33.75
2019-04-21T10:33:00.741Z,34.42
2019-04-21T10:38:14.973Z,33.36
2019-04-21T10:43:09.963Z,32.52
2019-04-21T10:48:10.827Z,31.65
2019-04-21T10:53:13.395Z,30.37
2019-04-21T10:58:16.244Z,28.56
2019-04-21T11:03:19.128Z,29.12
2019-04-21T11:08:23.646Z,29.12
2019-04-21T11:13:24.623Z,29.94
2019-04-21T11:18:26.498Z,29.63
2019-04-21T11:23:29.018Z,29.83
2019-04-21T11:28:31.192Z,29.86
2019-04-21T11:33:33.411Z,28.96
2019-04-21T11:38:51.301Z,29.79
2019-04-21T11:43:39.124Z,28.30
2019-04-21T11:48:42.055Z,29.45
2019-04-21T11:53:43.738Z,29.98
2019-04-21T11:58:45.808Z,29.44
2019-04-21T12:03:47.898Z,29.19
2019-04-21T12:08:52.945Z,29.17
2019-04-21T12:13:54.267Z,29.09
2019-04-21T12:18:56.791Z,29.70
2019-04-21T12:23:58.890Z,29.69
2019-04-21T12:29:01.732Z,30.07
2019-04-21T12:34:03.701Z,28.99
2019-04-21T12:39:08.453Z,29.09
2019-04-21T12:44:10.880Z,28.80
2019-04-21T12:49:13.774Z,29.21
2019-04-21T12:54:15.555Z,28.99
2019-04-21T12:59:17.107Z,29.05
2019-04-21T13:04:19.752Z,29.13
2019-04-21T13:09:22.265Z,28.34
2019-04-21T13:14:24.413Z,27.76
2019-04-21T13:19:27.245Z,29.20
2019-04-21T13:24:29.599Z,28.69
2019-04-21T13:29:32.279Z,28.82
2019-04-21T13:34:33.955Z,27.78
2019-04-21T13:40:03.391Z,27.75
2019-04-21T13:44:39.222Z,27.50
2019-04-21T13:49:41.524Z,26.87
2019-04-21T13:54:43.333Z,26.79
2019-04-21T13:59:44.879Z,26.41
2019-04-21T14:04:47.371Z,25.60
2019-04-21T14:09:56.035Z,26.48
2019-04-21T14:14:52.601Z,25.83
2019-04-21T14:19:55.223Z,27.28
2019-04-21T14:24:57.243Z,24.00
2019-04-21T14:29:58.848Z,26.82
2019-04-21T14:35:00.898Z,25.46
2019-04-21T14:40:07.503Z,24.02
2019-04-21T14:45:07.034Z,26.08
2019-04-21T14:50:09.320Z,25.95
2019-04-21T14:55:12.198Z,26.09
2019-04-21T15:00:15.353Z,25.57
2019-04-21T15:05:17.589Z,25.53
2019-04-21T15:10:25.215Z,25.29
2019-04-21T15:15:23.526Z,22.89
2019-04-21T15:20:25.703Z,22.59
2019-04-21T15:25:30.195Z,24.85
2019-04-21T15:30:32.485Z,25.39
2019-04-21T15:35:35.263Z,24.82
2019-04-21T15:40:44.601Z,24.63
2019-04-21T15:45:40.788Z,24.59
2019-04-21T15:50:42.332Z,25.10
2019-04-21T15:55:44.528Z,25.23
2019-04-21T16:00:46.827Z,26.37
2019-04-21T16:05:48.815Z,26.26
2019-04-21T16:10:56.190Z,26.06
2019-04-21T16:15:54.565Z,25.77
2019-04-21T16:20:57.656Z,25.29
2019-04-21T16:25:59.789Z,26.04
2019-04-21T16:31:02.504Z,25.47
2019-04-21T16:36:05.466Z,25.77
2019-04-21T16:41:10.584Z,23.59
2019-04-21T16:46:11.128Z,23.05
2019-04-21T16:51:13.286Z,24.57
2019-04-21T16:56:15.310Z,24.19
2019-04-21T17:01:20.011Z,23.74
2019-04-21T17:06:20.473Z,25.30
2019-04-21T17:11:28.680Z,25.73
2019-04-21T17:17:02.929Z,24.67
2019-04-21T17:21:30.156Z,26.25
2019-04-21T17:26:35.567Z,25.05
2019-04-21T17:31:37.085Z,27.00
2019-04-21T17:36:39.265Z,26.61
2019-04-21T17:41:55.974Z,27.88
2019-04-21T17:46:53.641Z,27.39
2019-04-21T17:51:57.023Z,27.20
2019-04-21T17:57:20.206Z,25.96
2019-04-21T18:02:23.234Z,27.25
2019-04-21T18:07:26.129Z,28.49
2019-04-21T18:12:24.966Z,30.79
2019-04-21T18:17:11.560Z,32.71
2019-04-21T18:22:14.629Z,34.07
2019-04-21T18:27:17.510Z,36.25
2019-04-21T18:32:26.367Z,36.25
2019-04-21T18:37:33.098Z,37.40
2019-04-21T18:42:45.257Z,37.80
2019-04-21T18:47:47.182Z,38.12
2019-04-21T18:52:51.126Z,38.43
2019-04-21T18:57:44.431Z,39.37
2019-04-21T19:02:47.724Z,39.77
2019-04-21T19:08:03.054Z,40.18
2019-04-21T19:13:29.087Z,40.56
2019-04-21T19:23:19.197Z,41.49
2019-04-21T19:28:17.985Z,42.11
2019-04-21T19:33:22.413Z,42.45
2019-04-21T19:38:12.222Z,43.29
2019-04-21T19:43:31.449Z,43.56
2019-04-21T19:48:42.778Z,44.04
2019-04-21T19:53:35.299Z,44.06
2019-04-21T19:58:31.218Z,44.92
2019-04-21T20:03:28.474Z,45.36
2019-04-21T20:08:44.681Z,45.35
2019-04-21T20:14:03.294Z,44.98
2019-04-21T20:18:44.109Z,44.54
2019-04-21T20:23:43.212Z,44.20
2019-04-21T20:28:56.915Z,43.53
2019-04-21T20:34:11.122Z,43.13
2019-04-21T20:39:03.513Z,42.82
2019-04-21T20:44:17.215Z,42.86
2019-04-21T20:49:19.084Z,42.98
2019-04-21T20:54:28.591Z,43.30
2019-04-21T20:59:30.438Z,43.38
2019-04-21T21:04:29.610Z,43.27
2019-04-21T21:09:33.959Z,43.27
2019-04-21T21:14:42.316Z,43.25
2019-04-21T21:19:49.985Z,43.61
2019-04-21T21:24:53.416Z,44.06
2019-04-21T21:29:50.131Z,44.76
2019-04-21T21:34:57.197Z,45.03
2019-04-21T21:40:08.293Z,45.39
2019-04-21T21:44:54.600Z,45.24
2019-04-21T21:50:01.124Z,45.42
2019-04-21T21:54:55.811Z,45.63
2019-04-21T22:00:03.321Z,45.73
2019-04-21T22:05:09.461Z,46.22
2019-04-21T22:10:06.482Z,47.03
2019-04-21T22:15:14.600Z,47.34
2019-04-21T22:20:33.544Z,47.90
2019-04-21T22:25:22.591Z,48.00
2019-04-21T22:30:26.079Z,47.91
2019-04-21T22:35:30.080Z,48.28
2019-04-21T22:40:41.574Z,48.42
2019-04-21T22:45:29.327Z,48.45
2019-04-21T22:50:32.768Z,48.63
2019-04-21T22:55:35.300Z,48.25
2019-04-21T23:00:44.434Z,48.52
2019-04-21T23:05:43.511Z,49.15
2019-04-21T23:10:49.586Z,49.59
2019-04-21T23:15:53.664Z,49.64
2019-04-21T23:21:08.472Z,49.18
2019-04-21T23:26:14.500Z,49.14
2019-04-21T23:31:18.709Z,48.87
2019-04-21T23:36:11.362Z,48.25
2019-04-21T23:41:08.992Z,47.74
2019-04-21T23:46:19.820Z,47.38
2019-04-21T23:51:25.502Z,47.62
2019-04-21T23:56:21.679Z,48.41
